Time;durP1;ratioP1;P1;durP2;ratioP2;P2;SDS_P1;SDS_P2;PMS_P1;PMS_P2;Temp;Humidity;BMP_temperature;BMP_pressure;BME280_temperature;BME280_humidity;BME280_pressure;Samples;Min_cycle;Max_cycle;Signal;HPM_P1;HPM_P2
2022/07/31 00:01:18;;;;;;;17.48;15.65;;;;;;;16.53;87.87;100709.31;5012651;28;20116;-75
2022/07/31 00:03:44;;;;;;;13.85;12.38;;;;;;;16.55;86.55;100710.16;5023532;28;20088;-75
2022/07/31 00:06:09;;;;;;;16.42;13.45;;;;;;;16.52;85.90;100703.09;5010312;28;20095;-75
2022/07/31 00:08:35;;;;;;;13.23;11.88;;;;;;;16.44;85.80;100713.09;5025956;28;20399;-75
2022/07/31 00:11:00;;;;;;;13.60;11.52;;;;;;;16.42;86.09;100706.94;5027099;28;20393;-75
2022/07/31 00:13:26;;;;;;;13.40;12.00;;;;;;;16.35;85.50;100713.38;5025190;28;20044;-75
2022/07/31 00:15:51;;;;;;;16.50;14.80;;;;;;;16.35;87.18;100714.25;5025379;28;20033;-75
2022/07/31 00:18:17;;;;;;;15.05;13.40;;;;;;;16.36;88.10;100712.44;5028241;28;20061;-76
2022/07/31 00:20:43;;;;;;;16.00;11.80;;;;;;;16.35;87.88;100713.38;5025293;28;20032;-75
2022/07/31 00:23:09;;;;;;;18.83;14.45;;;;;;;16.34;87.62;100711.59;5025114;28;20033;-76
2022/07/31 00:25:34;;;;;;;17.40;15.60;;;;;;;16.31;88.09;100711.69;5024112;28;20099;-75
2022/07/31 00:28:00;;;;;;;19.00;15.90;;;;;;;16.30;89.88;100710.81;5025181;28;20041;-75
2022/07/31 00:30:25;;;;;;;15.68;13.45;;;;;;;16.29;89.34;100709.06;5023378;28;20029;-76
2022/07/31 00:32:50;;;;;;;17.75;14.35;;;;;;;16.24;88.97;100702.13;5006552;28;20032;-75
2022/07/31 00:35:16;;;;;;;19.15;15.23;;;;;;;16.25;89.59;100702.09;5012297;28;20044;-75
2022/07/31 00:37:43;;;;;;;20.13;15.77;;;;;;;16.27;89.04;100699.38;5024673;28;20120;-75
2022/07/31 00:40:10;;;;;;;18.27;14.70;;;;;;;16.23;89.81;100705.69;5009285;28;20029;-75
2022/07/31 00:42:36;;;;;;;14.40;12.95;;;;;;;16.16;88.98;100697.84;5026939;28;20499;-75
2022/07/31 00:45:02;;;;;;;19.33;15.40;;;;;;;16.17;89.36;100704.94;5008110;28;20037;-75
2022/07/31 00:47:27;;;;;;;16.15;13.70;;;;;;;16.10;88.49;100703.34;5006493;28;20041;-75
2022/07/31 00:49:53;;;;;;;16.10;13.45;;;;;;;16.08;87.76;100702.50;4996530;28;20036;-75
2022/07/31 00:52:18;;;;;;;17.25;14.27;;;;;;;16.11;88.25;100702.47;5011599;28;20036;-75
2022/07/31 00:54:44;;;;;;;20.38;15.18;;;;;;;16.12;88.85;100706.84;5006669;28;20484;-75
2022/07/31 00:57:09;;;;;;;16.83;14.38;;;;;;;16.13;90.51;100705.94;5006649;28;20034;-75
2022/07/31 00:59:34;;;;;;;19.95;14.93;;;;;;;16.13;90.27;100710.38;5024738;28;20057;-75
2022/07/31 01:02:00;;;;;;;20.92;15.43;;;;;;;16.15;90.83;100701.44;5005731;28;20069;-75
2022/07/31 01:04:26;;;;;;;19.55;16.20;;;;;;;16.10;91.32;100708.69;5028363;28;20029;-75
2022/07/31 01:06:52;;;;;;;14.63;12.35;;;;;;;16.02;89.98;100704.47;5008444;28;20080;-75
2022/07/31 01:09:17;;;;;;;18.92;14.55;;;;;;;16.02;90.48;100702.69;5022814;28;20474;-75
2022/07/31 01:11:49;;;;;;;16.48;14.77;;;;;;;16.03;91.05;100700.88;5022930;28;20116;-75
2022/07/31 01:14:16;;;;;;;15.70;14.00;;;;;;;15.91;92.57;100710.09;5020573;28;20051;-75
2022/07/31 01:16:48;;;;;;;20.73;17.60;;;;;;;15.83;95.24;100698.75;5007400;28;20057;-75
2022/07/31 01:19:20;;;;;;;22.45;17.58;;;;;;;15.73;96.25;100703.44;5011597;28;20044;-75
2022/07/31 01:22:03;;;;;;;15.10;11.98;;;;;;;15.62;93.95;100703.66;5029523;28;20034;-75
2022/07/31 01:24:44;;;;;;;18.42;15.57;;;;;;;15.68;94.10;100699.97;5007143;28;20026;-75
2022/07/31 01:27:30;;;;;;;17.40;14.60;;;;;;;15.70;95.05;100699.06;5003339;28;20125;-75
2022/07/31 01:29:59;;;;;;;13.68;11.88;;;;;;;15.64;91.75;100703.59;5024301;28;20071;-75
2022/07/31 01:32:33;;;;;;;17.42;14.00;;;;;;;15.66;91.91;100707.97;5014126;28;20072;-75
2022/07/31 01:35:16;;;;;;;15.25;13.63;;;;;;;15.67;91.46;100707.09;5024260;28;20030;-75
2022/07/31 01:37:55;;;;;;;16.95;15.27;;;;;;;15.68;94.50;100705.28;5006580;28;20041;-75
2022/07/31 01:40:36;;;;;;;23.45;15.77;;;;;;;15.72;95.45;100702.56;5023346;28;20495;-75
2022/07/31 01:43:09;;;;;;;15.95;13.45;;;;;;;15.78;96.07;100701.53;5027792;28;20030;-75
2022/07/31 01:45:37;;;;;;;21.88;16.08;;;;;;;15.82;96.27;100702.31;4996397;28;20025;-75
2022/07/31 01:48:07;;;;;;;20.77;15.85;;;;;;;15.85;96.59;100696.91;5011003;28;20400;-75
2022/07/31 01:50:37;;;;;;;19.02;15.48;;;;;;;15.87;96.69;100703.94;5010681;28;20103;-75
2022/07/31 01:53:03;;;;;;;20.20;16.48;;;;;;;15.88;95.93;100703.03;5015017;28;20040;-75
2022/07/31 01:55:33;;;;;;;24.42;16.50;;;;;;;15.89;96.96;100694.13;5023092;28;20037;-75
2022/07/31 01:58:00;;;;;;;24.13;15.38;;;;;;;15.90;96.55;100701.22;5024456;28;20065;-75
2022/07/31 02:00:25;;;;;;;19.75;15.48;;;;;;;15.91;96.37;100696.78;5011051;28;20032;-75
2022/07/31 02:02:52;;;;;;;19.05;16.65;;;;;;;15.92;96.14;100698.50;5012320;28;20109;-76
2022/07/31 02:05:19;;;;;;;22.58;16.17;;;;;;;15.96;95.62;100705.50;5003473;28;20594;-75
2022/07/31 02:07:47;;;;;;;21.65;16.48;;;;;;;15.96;95.94;100702.84;5009785;28;20033;-75
2022/07/31 02:10:14;;;;;;;25.55;16.23;;;;;;;15.93;95.13;100702.94;5019115;28;20510;-75
2022/07/31 02:12:42;;;;;;;18.13;16.23;;;;;;;15.92;94.91;100698.50;4993770;28;20026;-76
2022/07/31 02:15:10;;;;;;;21.50;17.33;;;;;;;15.90;94.54;100695.91;5010242;28;20040;-75
2022/07/31 02:17:40;;;;;;;17.90;15.68;;;;;;;15.88;94.46;100689.75;5005668;28;20029;-75
2022/07/31 02:20:22;;;;;;;21.17;15.40;;;;;;;15.87;94.10;100695.09;5024013;28;20072;-75
2022/07/31 02:22:52;;;;;;;20.05;16.83;;;;;;;15.84;93.98;100692.50;5009024;28;20396;-75
2022/07/31 02:25:18;;;;;;;16.92;15.23;;;;;;;15.76;93.40;100685.59;5028541;28;20116;-75
2022/07/31 02:27:44;;;;;;;20.00;16.60;;;;;;;15.74;94.14;100681.22;5026657;28;20114;-75
2022/07/31 02:30:12;;;;;;;19.25;17.20;;;;;;;15.60;94.23;100691.31;5027589;28;20053;-75
2022/07/31 02:32:39;;;;;;;19.92;16.92;;;;;;;15.45;96.11;100692.53;5022868;28;20033;-75
2022/07/31 02:35:07;;;;;;;18.38;15.45;;;;;;;15.36;96.77;100688.31;5028161;28;20136;-75
2022/07/31 02:37:36;;;;;;;20.42;16.85;;;;;;;15.38;95.63;100686.50;5025599;28;20036;-76
2022/07/31 02:40:03;;;;;;;18.42;15.52;;;;;;;15.40;94.09;100681.13;5030634;28;20536;-75
2022/07/31 02:42:30;;;;;;;15.65;14.02;;;;;;;15.31;93.45;100685.75;5023749;28;20026;-75
2022/07/31 02:44:56;;;;;;;20.90;18.75;;;;;;;15.30;94.44;100672.47;5028724;28;20152;-76
2022/07/31 02:47:25;;;;;;;22.10;17.58;;;;;;;15.30;97.01;100683.13;5024705;28;20029;-75
2022/07/31 02:49:57;;;;;;;19.38;17.10;;;;;;;15.30;96.39;100673.38;5027922;28;20025;-75
2022/07/31 02:52:23;;;;;;;16.55;14.48;;;;;;;15.27;95.55;100668.16;5013526;28;20037;-75
2022/07/31 02:54:50;;;;;;;18.42;16.40;;;;;;;15.28;94.45;100669.88;5027286;28;20435;-75
2022/07/31 02:57:16;;;;;;;17.45;15.73;;;;;;;15.28;94.17;100669.00;5025485;28;20120;-75
2022/07/31 02:59:42;;;;;;;18.30;16.33;;;;;;;15.23;92.60;100661.13;5033009;28;20030;-75
2022/07/31 03:02:08;;;;;;;16.48;14.82;;;;;;;15.24;93.70;100662.88;5032213;28;20024;-76
2022/07/31 03:04:39;;;;;;;20.00;16.73;;;;;;;15.23;92.43;100661.13;5035279;28;20509;-75
2022/07/31 03:07:05;;;;;;;18.58;16.63;;;;;;;15.25;93.08;100659.31;5033358;28;20069;-75
2022/07/31 03:09:30;;;;;;;18.23;16.15;;;;;;;15.23;93.33;100654.94;5028325;28;20053;-75
2022/07/31 03:12:16;;;;;;;23.42;16.85;;;;;;;15.21;93.52;100652.31;5029696;28;20033;-75
2022/07/31 03:14:42;;;;;;;19.88;17.25;;;;;;;15.20;93.45;100652.38;5024836;28;20021;-76
2022/07/31 03:17:08;;;;;;;17.95;15.90;;;;;;;15.15;94.24;100655.13;5008618;28;20033;-75
2022/07/31 03:19:33;;;;;;;21.58;16.65;;;;;;;15.13;94.77;100656.94;5029208;28;20029;-76
2022/07/31 03:21:59;;;;;;;20.40;17.60;;;;;;;15.11;95.02;100645.47;5031797;28;20116;-76
2022/07/31 03:24:24;;;;;;;18.23;16.33;;;;;;;15.09;94.92;100648.16;5028299;28;20579;-76
2022/07/31 03:26:50;;;;;;;18.38;16.38;;;;;;;15.06;93.97;100644.69;5022391;28;20491;-76
2022/07/31 03:29:15;;;;;;;20.20;17.40;;;;;;;15.00;94.35;100647.50;5027956;28;20049;-76
2022/07/31 03:31:41;;;;;;;19.83;17.70;;;;;;;15.02;95.87;100633.25;5026268;28;20033;-75
2022/07/31 03:34:06;;;;;;;24.50;19.25;;;;;;;15.04;97.91;100643.88;5030024;28;20034;-76
2022/07/31 03:36:31;;;;;;;21.27;18.42;;;;;;;15.05;98.74;100640.28;5023011;28;20046;-76
2022/07/31 03:38:57;;;;;;;20.77;17.15;;;;;;;15.04;98.51;100643.88;5027327;28;20037;-76
2022/07/31 03:41:30;;;;;;;18.80;16.80;;;;;;;15.09;96.70;100647.28;5025511;28;20387;-76
2022/07/31 03:43:56;;;;;;;20.88;16.90;;;;;;;15.08;95.43;100649.06;5025288;28;20029;-76
2022/07/31 03:46:22;;;;;;;20.38;16.67;;;;;;;15.15;94.61;100649.81;5016035;28;20780;-76
2022/07/31 03:48:50;;;;;;;23.13;17.58;;;;;;;15.11;94.64;100651.63;5026787;28;20037;-76
2022/07/31 03:51:17;;;;;;;18.98;17.17;;;;;;;15.14;94.94;100648.03;5031533;28;20403;-76
2022/07/31 03:53:43;;;;;;;23.85;17.30;;;;;;;15.11;96.42;100653.44;5023344;28;20033;-76
2022/07/31 03:56:17;;;;;;;23.45;18.33;;;;;;;15.08;97.69;100657.03;5027024;28;20029;-76
2022/07/31 03:58:43;;;;;;;31.95;18.83;;;;;;;15.10;98.45;100659.66;5029027;28;20055;-76
2022/07/31 04:01:08;;;;;;;17.85;15.52;;;;;;;15.16;98.68;100648.88;5026053;28;20491;-76
2022/07/31 04:03:34;;;;;;;21.80;17.08;;;;;;;15.16;98.97;100651.53;5015720;28;20404;-76
2022/07/31 04:06:19;;;;;;;23.88;17.25;;;;;;;15.19;99.17;100648.81;5025041;28;20063;-76
2022/07/31 04:08:45;;;;;;;17.35;15.50;;;;;;;15.25;98.23;100653.13;5031205;28;20045;-76
2022/07/31 04:11:11;;;;;;;19.10;17.10;;;;;;;15.28;98.64;100658.38;5027291;28;20033;-76
2022/07/31 04:13:36;;;;;;;21.35;16.60;;;;;;;15.32;98.58;100662.69;5024651;28;20399;-75
2022/07/31 04:16:02;;;;;;;15.25;13.65;;;;;;;15.41;97.39;100659.81;5012202;28;20041;-76
2022/07/31 04:18:27;;;;;;;17.30;15.55;;;;;;;15.46;97.28;100657.94;5034699;28;20068;-76
2022/07/31 04:20:53;;;;;;;18.85;16.15;;;;;;;15.54;96.49;100663.94;5026901;28;20443;-76
2022/07/31 04:23:18;;;;;;;17.42;15.55;;;;;;;15.61;96.83;100661.13;5028082;28;20072;-76
2022/07/31 04:26:04;;;;;;;19.75;15.70;;;;;;;15.67;95.63;100669.84;5035199;28;20038;-76
2022/07/31 04:28:34;;;;;;;18.88;15.40;;;;;;;15.73;95.58;100675.03;5028834;28;20029;-75
2022/07/31 04:31:00;;;;;;;17.23;15.45;;;;;;;15.81;94.85;100673.97;5023342;28;20075;-76
2022/07/31 04:33:27;;;;;;;16.55;14.93;;;;;;;15.81;95.24;100676.63;5028062;28;20029;-76
2022/07/31 04:35:52;;;;;;;17.45;15.63;;;;;;;15.89;94.35;100678.16;5024595;28;20033;-76
2022/07/31 04:38:18;;;;;;;16.80;15.15;;;;;;;15.96;93.76;100673.56;5026993;28;20045;-76
2022/07/31 04:40:44;;;;;;;19.60;15.30;;;;;;;16.04;93.07;100676.91;5019526;28;20048;-76
2022/07/31 04:43:11;;;;;;;20.85;16.83;;;;;;;16.07;93.33;100675.94;5027443;28;20037;-76
2022/07/31 04:45:36;;;;;;;17.05;15.45;;;;;;;16.13;92.84;100687.28;5024965;28;20082;-76
2022/07/31 04:48:02;;;;;;;17.55;15.80;;;;;;;16.18;93.03;100692.50;5022839;28;20617;-76
2022/07/31 04:50:28;;;;;;;16.77;15.15;;;;;;;16.21;92.30;100689.75;5025792;28;20406;-76
2022/07/31 04:52:55;;;;;;;18.10;16.17;;;;;;;16.25;92.48;100680.78;5024167;28;20068;-77
2022/07/31 04:55:23;;;;;;;17.52;15.73;;;;;;;16.30;92.65;100684.19;5030451;28;20388;-76
2022/07/31 04:57:48;;;;;;;17.23;14.73;;;;;;;16.35;92.75;100686.75;5028870;28;20444;-76
2022/07/31 05:00:14;;;;;;;16.52;14.90;;;;;;;16.46;92.10;100695.31;5026774;28;20057;-76
2022/07/31 05:02:39;;;;;;;17.00;15.27;;;;;;;16.53;91.58;100696.88;5025461;28;20025;-76
2022/07/31 05:05:05;;;;;;;19.17;15.95;;;;;;;16.56;91.50;100690.59;5028531;28;20072;-76
2022/07/31 05:07:36;;;;;;;16.05;14.45;;;;;;;16.66;91.32;100697.38;4995851;28;20033;-76
2022/07/31 05:10:07;;;;;;;16.90;15.10;;;;;;;16.73;90.66;100698.09;5030789;28;20033;-76
2022/07/31 05:12:34;;;;;;;21.50;15.15;;;;;;;16.80;90.05;100692.56;5026597;28;20032;-76
2022/07/31 05:14:59;;;;;;;15.27;13.77;;;;;;;16.87;90.01;100698.59;5024111;28;20037;-76
2022/07/31 05:17:24;;;;;;;15.95;14.35;;;;;;;16.96;89.25;100705.44;5026626;28;20032;-76
2022/07/31 05:19:59;;;;;;;16.48;14.77;;;;;;;17.00;89.06;100700.00;5029002;28;20037;-76
2022/07/31 05:22:51;;;;;;;16.93;14.47;;;;;;;17.07;88.62;100696.19;5020746;28;20053;-76
2022/07/31 05:25:32;;;;;;;15.48;13.90;;;;;;;17.16;88.16;100696.84;5008853;28;20030;-76
2022/07/31 05:27:57;;;;;;;18.60;14.30;;;;;;;17.26;88.08;100692.97;5008636;28;20026;-76
2022/07/31 05:30:22;;;;;;;15.85;14.43;;;;;;;17.33;87.72;100691.84;5026902;28;20073;-76
2022/07/31 05:32:48;;;;;;;16.30;14.68;;;;;;;17.35;87.25;100691.81;5011526;28;20033;-76
2022/07/31 05:35:13;;;;;;;15.93;13.95;;;;;;;17.44;87.07;100696.84;5012744;28;20042;-76
2022/07/31 05:37:39;;;;;;;16.67;14.88;;;;;;;17.50;86.86;100691.31;5008978;28;20034;-76
2022/07/31 05:40:08;;;;;;;15.55;14.05;;;;;;;17.55;86.48;100691.16;4993609;28;20415;-76
2022/07/31 05:43:05;;;;;;;16.73;15.23;;;;;;;17.56;86.42;100691.13;5026001;28;20042;-76
2022/07/31 05:45:49;;;;;;;16.35;14.75;;;;;;;17.64;85.64;100683.75;5026822;28;20103;-76
2022/07/31 05:48:15;;;;;;;14.93;13.60;;;;;;;17.79;85.75;100687.75;5012244;28;20484;-76
2022/07/31 05:50:45;;;;;;;16.42;14.85;;;;;;;17.90;84.91;100693.59;5022832;28;20030;-76
2022/07/31 05:53:14;;;;;;;17.13;13.20;;;;;;;18.02;84.11;100689.59;5005963;28;20076;-76
2022/07/31 05:55:57;;;;;;;14.35;13.02;;;;;;;18.04;83.67;100697.59;5025290;28;20049;-76
2022/07/31 05:58:40;;;;;;;16.63;14.90;;;;;;;18.15;83.34;100696.25;4993605;28;20177;-76
2022/07/31 06:01:05;;;;;;;14.25;12.80;;;;;;;18.24;82.31;100699.56;5011095;28;20112;-76
2022/07/31 06:03:34;;;;;;;15.60;14.23;;;;;;;18.32;82.16;100689.47;5006019;28;20076;-76
2022/07/31 06:06:03;;;;;;;12.77;11.57;;;;;;;18.43;81.68;100684.63;5016992;28;20036;-76
2022/07/31 06:08:29;;;;;;;13.80;11.82;;;;;;;18.57;81.33;100698.34;5014895;28;20402;-76
2022/07/31 06:10:55;;;;;;;15.00;12.40;;;;;;;18.68;79.89;100694.41;5014312;28;20022;-76
2022/07/31 06:13:26;;;;;;;11.90;10.70;;;;;;;18.77;79.33;100689.63;5012534;28;20065;-76
2022/07/31 06:15:53;;;;;;;13.05;11.95;;;;;;;18.88;78.84;100691.03;5013597;28;20413;-76
2022/07/31 06:18:19;;;;;;;12.85;11.57;;;;;;;18.98;77.44;100693.28;5024677;28;20082;-76
2022/07/31 06:20:44;;;;;;;13.82;12.43;;;;;;;18.96;77.34;100691.59;5014178;28;20030;-76
2022/07/31 06:23:10;;;;;;;13.82;12.23;;;;;;;18.99;77.26;100688.78;5012413;28;20048;-76
2022/07/31 06:25:37;;;;;;;15.98;13.23;;;;;;;19.02;77.25;100694.03;5014243;28;20080;-76
2022/07/31 06:28:03;;;;;;;14.77;12.95;;;;;;;19.16;76.63;100690.84;5009429;28;20437;-76
2022/07/31 06:30:28;;;;;;;14.18;12.77;;;;;;;19.18;75.87;100694.31;5009681;28;20029;-76
2022/07/31 06:32:54;;;;;;;13.10;11.80;;;;;;;19.30;75.68;100682.25;5007991;28;20136;-76
2022/07/31 06:35:19;;;;;;;12.68;11.20;;;;;;;19.43;75.59;100683.50;5015796;28;20033;-76
2022/07/31 06:38:03;;;;;;;12.68;11.48;;;;;;;19.62;74.90;100687.19;5028198;28;20514;-76
2022/07/31 06:40:36;;;;;;;13.02;11.68;;;;;;;19.76;74.01;100691.13;5010897;28;20395;-76
2022/07/31 06:43:30;;;;;;;14.40;12.93;;;;;;;19.88;73.21;100680.75;5009276;28;20116;-76
2022/07/31 06:46:34;;;;;;;13.95;12.55;;;;;;;19.94;73.00;100682.31;4948139;29;20031;-76
2022/07/31 06:49:18;;;;;;;11.27;10.18;;;;;;;20.08;72.29;100682.59;4945029;29;20059;-76
2022/07/31 06:51:44;;;;;;;12.80;11.55;;;;;;;20.23;72.44;100681.06;4981378;28;20058;-76
2022/07/31 06:54:10;;;;;;;12.57;11.38;;;;;;;20.32;70.57;100677.97;5014235;28;20059;-76
2022/07/31 06:56:37;;;;;;;13.63;12.27;;;;;;;20.45;70.95;100680.09;5025009;28;20068;-76
2022/07/31 06:59:04;;;;;;;13.45;12.15;;;;;;;20.52;70.66;100684.25;5028734;28;20133;-76
2022/07/31 07:01:30;;;;;;;13.15;11.73;;;;;;;20.55;69.97;100687.69;5026325;28;20044;-76
2022/07/31 07:03:56;;;;;;;15.18;10.98;;;;;;;20.68;70.34;100692.50;5023551;28;20081;-76
2022/07/31 07:06:22;;;;;;;12.75;11.48;;;;;;;20.81;69.87;100677.59;5027528;28;20434;-76
2022/07/31 07:08:48;;;;;;;13.50;12.23;;;;;;;20.86;68.85;100688.97;5027304;28;20025;-76
2022/07/31 07:11:16;;;;;;;13.43;12.23;;;;;;;20.92;68.63;100686.00;5010360;28;20049;-76
2022/07/31 07:13:42;;;;;;;14.73;12.85;;;;;;;21.02;68.21;100678.41;5025348;28;20034;-76
2022/07/31 07:16:07;;;;;;;14.18;12.57;;;;;;;21.03;68.00;100677.44;5026147;28;20067;-76
2022/07/31 07:18:33;;;;;;;14.40;12.38;;;;;;;21.04;68.59;100683.69;5032168;28;20037;-76
2022/07/31 07:20:58;;;;;;;13.98;12.57;;;;;;;21.21;67.63;100681.06;5036947;28;20103;-76
2022/07/31 07:23:24;;;;;;;13.20;11.90;;;;;;;21.24;68.11;100686.28;5032231;28;20040;-76
2022/07/31 07:26:05;;;;;;;13.88;12.68;;;;;;;21.29;67.06;100683.38;5034016;28;20063;-76
2022/07/31 07:28:30;;;;;;;14.43;13.05;;;;;;;21.34;67.13;100684.91;5029908;28;20504;-76
2022/07/31 07:30:56;;;;;;;14.75;13.60;;;;;;;21.46;66.61;100680.81;5036020;28;20103;-76
2022/07/31 07:33:22;;;;;;;14.65;13.30;;;;;;;21.59;66.90;100683.75;5024250;28;20484;-76
2022/07/31 07:35:47;;;;;;;19.73;14.48;;;;;;;21.70;65.59;100689.44;5033200;28;20033;-75
2022/07/31 07:38:17;;;;;;;16.10;14.80;;;;;;;21.76;65.61;100675.69;5031050;28;20025;-76
2022/07/31 07:40:42;;;;;;;15.75;14.45;;;;;;;21.82;64.99;100683.47;5022732;28;20026;-76
2022/07/31 07:43:08;;;;;;;16.13;14.88;;;;;;;21.78;65.44;100671.13;5022971;28;20112;-76
2022/07/31 07:45:34;;;;;;;15.10;13.75;;;;;;;21.83;65.82;100669.09;5026341;28;20029;-76
2022/07/31 07:48:00;;;;;;;14.82;13.52;;;;;;;21.99;65.66;100668.31;5024552;28;20152;-76
2022/07/31 07:50:26;;;;;;;17.75;16.25;;;;;;;22.15;64.68;100661.19;5027018;28;20543;-76
2022/07/31 07:53:12;;;;;;;16.85;15.05;;;;;;;22.22;63.67;100657.25;4984626;28;20110;-76
2022/07/31 07:55:56;;;;;;;15.55;14.43;;;;;;;22.26;63.33;100657.94;5026124;28;20044;-76
2022/07/31 07:58:40;;;;;;;15.85;14.57;;;;;;;22.16;63.62;100654.84;5026300;28;20523;-76
2022/07/31 08:01:25;;;;;;;17.17;15.68;;;;;;;22.26;63.48;100656.13;5027397;28;20098;-76
2022/07/31 08:03:54;;;;;;;15.60;14.10;;;;;;;22.32;62.91;100652.25;5028171;28;20029;-76
2022/07/31 08:06:22;;;;;;;15.43;14.23;;;;;;;22.44;62.57;100651.59;5021886;28;20299;-76
2022/07/31 08:08:48;;;;;;;15.60;14.40;;;;;;;22.50;61.87;100661.16;5023208;28;20036;-75
2022/07/31 08:11:40;;;;;;;15.48;14.23;;;;;;;22.61;62.47;100644.44;5023452;28;20499;-76
2022/07/31 08:14:14;;;;;;;15.52;14.23;;;;;;;22.65;62.00;100646.00;5022795;28;20128;-76
2022/07/31 08:17:03;;;;;;;16.33;14.88;;;;;;;22.80;60.87;100642.47;5006231;28;20049;-76
2022/07/31 08:19:28;;;;;;;16.15;14.75;;;;;;;22.87;60.82;100634.91;5026262;28;20040;-76
2022/07/31 08:21:54;;;;;;;15.45;14.25;;;;;;;23.02;60.04;100634.09;5020476;28;20042;-76
2022/07/31 08:24:19;;;;;;;16.60;15.20;;;;;;;23.12;59.89;100639.84;5027747;28;20071;-76
2022/07/31 08:29:30;;;;;;;17.40;16.05;;;;;;;23.17;59.20;100633.25;5025837;28;20029;-75
2022/07/31 08:32:12;;;;;;;15.13;14.13;;;;;;;23.24;59.58;100623.00;5029127;28;20402;-76
2022/07/31 08:35:04;;;;;;;15.90;14.52;;;;;;;23.31;58.75;100634.25;5026009;28;20038;-76
2022/07/31 08:37:29;;;;;;;15.52;14.25;;;;;;;23.42;59.34;100642.59;5021965;28;20032;-76
2022/07/31 08:39:58;;;;;;;17.95;16.13;;;;;;;23.39;59.40;100627.47;5021638;28;20054;-76
2022/07/31 08:42:24;;;;;;;15.02;13.77;;;;;;;23.47;58.29;100616.25;5027103;28;20033;-75
2022/07/31 08:44:49;;;;;;;16.40;15.00;;;;;;;23.69;56.87;100621.25;5022010;28;20088;-75
2022/07/31 08:47:18;;;;;;;16.10;14.75;;;;;;;23.70;57.22;100625.69;5023058;28;20083;-76
2022/07/31 08:49:48;;;;;;;16.40;15.13;;;;;;;23.70;57.48;100619.44;5023903;28;20026;-75
2022/07/31 08:52:23;;;;;;;17.00;15.50;;;;;;;23.83;57.06;100617.75;5024492;28;20029;-76
2022/07/31 08:55:09;;;;;;;16.85;15.48;;;;;;;24.12;56.24;100621.38;5024617;28;20100;-76
2022/07/31 08:57:36;;;;;;;16.08;14.88;;;;;;;24.21;56.13;100611.88;5021947;28;20026;-76
2022/07/31 09:00:05;;;;;;;16.08;14.63;;;;;;;24.32;55.64;100613.91;5028542;28;20068;-75
2022/07/31 09:02:31;;;;;;;16.15;14.85;;;;;;;24.38;55.38;100600.03;5024931;28;20387;-76
2022/07/31 09:05:24;;;;;;;15.23;14.23;;;;;;;24.58;54.82;100604.22;5024235;28;20029;-75
2022/07/31 09:07:51;;;;;;;15.13;14.00;;;;;;;24.66;53.88;100600.06;5022775;28;20032;-76
2022/07/31 09:10:25;;;;;;;15.82;14.48;;;;;;;24.79;53.52;100589.34;5028757;28;20030;-76
2022/07/31 09:12:52;;;;;;;15.48;14.38;;;;;;;24.99;53.67;100595.25;5023085;28;20522;-76
2022/07/31 09:15:25;;;;;;;15.70;14.60;;;;;;;25.16;52.75;100603.16;5029381;28;20033;-76
2022/07/31 09:17:51;;;;;;;13.35;12.35;;;;;;;25.13;53.16;100587.13;5036519;28;20065;-76
2022/07/31 09:20:25;;;;;;;12.65;11.75;;;;;;;25.29;52.82;100604.09;5029457;28;20029;-76
2022/07/31 09:23:03;;;;;;;13.77;12.85;;;;;;;25.16;51.61;100589.66;5021533;28;20029;-76
2022/07/31 09:25:28;;;;;;;14.18;13.07;;;;;;;25.04;51.45;100587.72;5026856;28;20060;-76
2022/07/31 09:28:00;;;;;;;13.77;12.77;;;;;;;25.24;50.16;100595.41;5023637;28;20037;-76
2022/07/31 09:30:26;;;;;;;13.63;12.57;;;;;;;25.24;50.31;100579.22;5029231;28;20025;-76
2022/07/31 09:33:30;;;;;;;13.90;12.80;;;;;;;25.33;50.56;100578.59;5023595;28;20514;-76
2022/07/31 09:36:22;;;;;;;;;;;;;;;25.40;49.08;100583.59;5021774;28;20041;-77
2022/07/31 09:38:50;;;;;;;13.75;12.63;;;;;;;25.46;49.00;100585.88;5008843;28;20100;-78
2022/07/31 09:41:51;;;;;;;14.77;13.77;;;;;;;25.47;49.86;100579.53;5020615;28;20041;-78
2022/07/31 09:44:47;;;;;;;13.57;12.57;;;;;;;25.77;48.50;100566.59;5019340;28;20496;-77
2022/07/31 09:47:26;;;;;;;12.73;11.82;;;;;;;25.95;47.50;100580.72;5023418;28;20029;-77
2022/07/31 09:50:00;;;;;;;12.95;11.70;;;;;;;26.05;48.15;100567.41;5028937;28;20028;-77
2022/07/31 09:52:27;;;;;;;13.95;12.93;;;;;;;26.05;48.27;100562.00;5024173;28;20037;-78
2022/07/31 09:55:14;;;;;;;12.88;11.98;;;;;;;26.22;46.17;100568.91;5019162;28;20065;-77
2022/07/31 09:57:52;;;;;;;11.38;10.57;;;;;;;26.16;46.13;100562.09;5015076;28;20026;-77
2022/07/31 10:00:18;;;;;;;11.10;10.20;;;;;;;26.37;46.89;100556.16;5011695;28;20391;-77
2022/07/31 10:02:45;;;;;;;12.57;11.48;;;;;;;26.49;45.88;100552.56;5008911;28;20029;-78
2022/07/31 10:05:11;;;;;;;14.82;13.80;;;;;;;26.65;43.54;100558.63;5011082;28;20080;-77
2022/07/31 10:07:38;;;;;;;18.05;13.27;;;;;;;26.48;45.28;100561.63;5012179;28;20432;-77
2022/07/31 10:10:13;;;;;;;13.20;12.20;;;;;;;26.59;45.62;100564.47;5012206;28;20025;-77
2022/07/31 10:12:54;;;;;;;14.97;13.80;;;;;;;26.74;44.70;100559.78;5027469;28;20025;-77
2022/07/31 10:15:21;;;;;;;14.63;13.43;;;;;;;26.82;45.09;100542.97;5016404;28;20064;-77
2022/07/31 10:18:08;;;;;;;10.80;10.05;;;;;;;26.71;44.63;100554.59;5028095;28;20470;-77
2022/07/31 10:20:47;;;;;;;11.48;10.77;;;;;;;26.36;43.90;100551.72;5008770;28;20033;-77
2022/07/31 10:23:40;;;;;;;12.25;11.23;;;;;;;26.13;44.96;100543.41;5015785;28;20037;-77
2022/07/31 10:26:06;;;;;;;14.77;13.50;;;;;;;26.11;44.12;100547.19;5012982;28;20575;-77
2022/07/31 10:28:35;;;;;;;12.82;11.93;;;;;;;26.03;44.45;100558.53;5026540;28;20483;-77
2022/07/31 10:31:02;;;;;;;12.02;11.13;;;;;;;26.33;43.68;100544.69;5016192;28;20034;-77
2022/07/31 10:33:28;;;;;;;14.68;13.77;;;;;;;26.98;42.69;100537.28;5014559;28;20037;-77
2022/07/31 10:36:26;;;;;;;11.68;10.88;;;;;;;27.49;41.97;100543.34;5028451;28;20044;-76
2022/07/31 10:39:14;;;;;;;13.27;12.38;;;;;;;27.48;41.25;100538.00;5026293;28;20436;-77
2022/07/31 10:42:14;;;;;;;14.13;13.15;;;;;;;27.44;40.89;100537.41;5023234;28;20036;-77
2022/07/31 10:44:45;;;;;;;14.10;12.68;;;;;;;27.30;42.16;100537.56;5028231;28;20061;-78
2022/07/31 10:47:17;;;;;;;14.30;13.30;;;;;;;27.48;41.83;100533.47;5028328;28;20056;-77
2022/07/31 10:50:05;;;;;;;13.43;12.27;;;;;;;27.86;40.86;100532.38;5010433;28;20037;-77
2022/07/31 10:52:43;;;;;;;13.27;12.38;;;;;;;28.14;41.68;100531.03;5005231;28;20040;-77
2022/07/31 10:55:24;;;;;;;13.55;12.75;;;;;;;28.54;39.38;100535.13;5029447;28;20099;-77
2022/07/31 10:58:20;;;;;;;13.30;12.40;;;;;;;28.16;39.21;100520.06;5013112;28;20044;-77
2022/07/31 11:00:50;;;;;;;11.90;10.90;;;;;;;28.32;40.38;100526.00;5005368;28;20049;-77
2022/07/31 11:03:40;;;;;;;15.18;14.27;;;;;;;28.39;38.54;100523.63;5001023;28;20029;-77
2022/07/31 11:06:20;;;;;;;12.63;11.75;;;;;;;28.31;38.64;100512.53;5007154;28;20033;-77
2022/07/31 11:09:08;;;;;;;13.13;12.32;;;;;;;28.28;39.16;100529.06;5026076;28;20041;-77
2022/07/31 11:11:53;;;;;;;14.00;13.10;;;;;;;28.31;38.69;100505.25;5025987;28;20056;-77
2022/07/31 11:14:36;;;;;;;15.38;14.27;;;;;;;28.67;37.85;100507.84;5012719;28;20079;-76
2022/07/31 11:17:33;;;;;;;13.07;12.18;;;;;;;28.94;37.40;100508.25;5022268;28;20037;-77
2022/07/31 11:20:27;;;;;;;14.30;13.32;;;;;;;28.84;36.72;100505.44;5027953;28;20503;-77
2022/07/31 11:22:55;;;;;;;16.63;15.52;;;;;;;28.68;37.39;100499.56;5009200;28;20044;-77
2022/07/31 11:25:22;;;;;;;15.32;14.20;;;;;;;28.92;36.67;100502.06;5014028;28;20037;-77
2022/07/31 11:27:48;;;;;;;16.73;15.70;;;;;;;29.21;36.32;100513.28;5008719;28;20284;-77
2022/07/31 11:30:13;;;;;;;15.25;14.30;;;;;;;29.14;35.22;100505.75;5028683;28;20033;-77